Time;durP1;ratioP1;P1;durP2;ratioP2;P2;SDS_P1;SDS_P2;PMS_P1;PMS_P2;Temp;Humidity;BMP_temperature;BMP_pressure;BME280_temperature;BME280_humidity;BME280_pressure;Samples;Min_cycle;Max_cycle;Signal;HPM_P1;HPM_P2
2022/05/26 00:01:05;;;;;;;5.22;4.22;;;20.90;66.70;;;;;;5035005;28;20033;-80
2022/05/26 00:03:32;;;;;;;7.65;4.95;;;21.10;66.00;;;;;;5040526;28;20020;-79
2022/05/26 00:05:59;;;;;;;6.00;4.65;;;20.90;66.00;;;;;;5073346;28;20099;-86
2022/05/26 00:08:26;;;;;;;6.35;4.78;;;21.00;66.00;;;;;;5054411;28;20051;-78
2022/05/26 00:10:52;;;;;;;7.38;4.60;;;21.00;65.40;;;;;;5072584;28;20485;-81
2022/05/26 00:13:18;;;;;;;6.15;4.82;;;21.10;65.50;;;;;;5071809;28;20032;-83
2022/05/26 00:15:44;;;;;;;8.63;5.20;;;20.90;65.30;;;;;;5072513;28;20555;-83
2022/05/26 00:18:09;;;;;;;6.28;4.28;;;20.90;65.90;;;;;;5073146;28;20095;-84
2022/05/26 00:20:35;;;;;;;6.72;4.80;;;21.00;65.70;;;;;;5055314;28;20037;-86
2022/05/26 00:23:01;;;;;;;6.45;4.72;;;20.80;66.00;;;;;;5072298;28;20048;-80
2022/05/26 00:25:27;;;;;;;6.90;4.45;;;20.70;66.40;;;;;;5055472;28;20029;-80
2022/05/26 00:27:52;;;;;;;5.35;4.43;;;20.60;66.50;;;;;;5067728;28;20013;-83
2022/05/26 00:30:18;;;;;;;6.57;4.30;;;20.40;67.00;;;;;;5055210;28;20024;-81
2022/05/26 00:32:44;;;;;;;6.35;4.78;;;20.60;66.60;;;;;;5071852;28;20020;-85
2022/05/26 00:35:09;;;;;;;6.30;4.80;;;20.70;66.00;;;;;;5072938;28;20497;-77
2022/05/26 00:37:35;;;;;;;8.45;4.78;;;20.60;66.00;;;;;;5072093;28;20020;-81
2022/05/26 00:40:03;;;;;;;7.20;4.57;;;20.50;66.00;;;;;;5054627;28;20483;-83
2022/05/26 00:42:29;;;;;;;6.72;4.60;;;20.30;67.10;;;;;;5054745;28;20096;-84
2022/05/26 00:44:54;;;;;;;6.57;4.68;;;20.30;67.00;;;;;;5034921;28;20032;-83
2022/05/26 00:47:27;;;;;;;6.82;4.40;;;20.40;66.50;;;;;;5052590;28;20029;-78
2022/05/26 00:50:19;;;;;;;9.40;4.63;;;20.60;66.20;;;;;;5054529;28;20025;-79
2022/05/26 00:52:59;;;;;;;5.97;4.70;;;20.50;66.10;;;;;;5061501;28;20064;-84
2022/05/26 00:55:29;;;;;;;8.57;4.78;;;20.30;66.50;;;;;;5058909;28;20039;-83
2022/05/26 00:58:01;;;;;;;6.90;4.23;;;20.10;67.00;;;;;;5058527;28;20048;-80
2022/05/26 01:00:31;;;;;;;5.55;4.25;;;20.00;67.50;;;;;;5075955;28;20048;-84
2022/05/26 01:03:03;;;;;;;5.47;4.55;;;20.10;66.90;;;;;;5059070;28;20024;-83
2022/05/26 01:05:37;;;;;;;5.55;4.40;;;20.00;67.30;;;;;;5058676;28;20383;-86
2022/05/26 01:08:10;;;;;;;6.10;4.45;;;19.80;67.70;;;;;;5057575;28;20115;-80
2022/05/26 01:10:36;;;;;;;7.03;4.28;;;19.80;67.80;;;;;;5075385;28;20064;-80
2022/05/26 01:13:02;;;;;;;6.47;4.80;;;20.10;67.00;;;;;;5057860;28;20021;-84
2022/05/26 01:15:30;;;;;;;7.45;4.35;;;20.20;66.40;;;;;;5076022;28;20029;-89
2022/05/26 01:18:16;;;;;;;7.65;4.53;;;20.30;66.10;;;;;;5075345;28;20074;-79
2022/05/26 01:20:47;;;;;;;6.13;4.55;;;20.20;65.90;;;;;;5074903;28;20036;-84
2022/05/26 01:23:50;;;;;;;5.57;4.38;;;20.10;66.50;;;;;;5076287;28;20091;-80
2022/05/26 01:26:31;;;;;;;6.80;4.53;;;20.10;67.00;;;;;;5057667;28;20037;-77
2022/05/26 01:29:42;;;;;;;6.28;4.60;;;20.30;66.10;;;;;;5057464;28;20054;-76
2022/05/26 01:32:17;;;;;;;5.97;4.45;;;20.20;66.20;;;;;;5075831;28;20436;-82
2022/05/26 01:34:55;;;;;;;5.50;4.22;;;20.50;66.00;;;;;;5057897;28;20017;-80
2022/05/26 01:37:49;;;;;;;6.38;4.80;;;20.50;65.60;;;;;;5056705;28;20420;-79
2022/05/26 01:40:40;;;;;;;6.85;4.75;;;20.70;65.40;;;;;;5075488;28;20040;-81
2022/05/26 01:43:15;;;;;;;7.07;4.50;;;20.70;64.80;;;;;;5057450;28;20016;-87
2022/05/26 01:46:14;;;;;;;6.13;4.40;;;20.80;64.60;;;;;;5054428;28;20025;-80
2022/05/26 01:48:48;;;;;;;7.00;4.22;;;20.50;65.30;;;;;;5037335;28;20029;-78
2022/05/26 01:51:28;;;;;;;6.28;4.70;;;20.20;66.10;;;;;;5037356;28;20024;-80
2022/05/26 01:54:17;;;;;;;7.20;4.90;;;20.20;65.90;;;;;;5037632;28;20036;-79
2022/05/26 01:56:59;;;;;;;7.13;5.10;;;20.40;65.70;;;;;;5053304;28;20037;-79
2022/05/26 01:59:25;;;;;;;8.50;5.20;;;20.50;65.10;;;;;;5056831;28;20032;-79
2022/05/26 02:01:58;;;;;;;6.85;5.05;;;20.70;64.90;;;;;;5072991;28;20044;-82
2022/05/26 02:04:33;;;;;;;6.10;4.65;;;20.90;63.90;;;;;;5071953;28;20028;-82
2022/05/26 02:07:07;;;;;;;6.45;4.88;;;21.10;63.70;;;;;;5056365;28;20470;-80
2022/05/26 02:09:41;;;;;;;7.63;4.88;;;21.10;63.30;;;;;;5074861;28;20025;-80
2022/05/26 02:12:35;;;;;;;6.28;4.53;;;21.10;63.10;;;;;;5049883;28;20467;-79
2022/05/26 02:15:07;;;;;;;5.80;4.15;;;21.20;63.40;;;;;;5054816;28;20391;-81
2022/05/26 02:17:38;;;;;;;6.03;4.78;;;21.10;63.30;;;;;;5054837;28;20043;-82
2022/05/26 02:20:08;;;;;;;7.72;4.55;;;20.90;63.60;;;;;;5036910;28;20024;-84
2022/05/26 02:22:33;;;;;;;5.50;4.40;;;20.90;63.70;;;;;;5064612;28;20025;-88
2022/05/26 02:25:07;;;;;;;6.03;4.25;;;20.80;63.70;;;;;;5057037;28;20024;-80
2022/05/26 02:27:34;;;;;;;6.05;4.40;;;20.60;63.50;;;;;;5074699;28;20052;-85
2022/05/26 02:30:01;;;;;;;6.30;4.72;;;20.70;63.70;;;;;;5056802;28;20383;-88
2022/05/26 02:32:47;;;;;;;5.88;4.45;;;20.60;63.20;;;;;;5055433;28;20024;-90
2022/05/26 02:35:17;;;;;;;5.30;4.18;;;20.40;63.70;;;;;;5056511;28;20416;-79
2022/05/26 02:37:47;;;;;;;7.40;4.70;;;20.30;64.10;;;;;;5074536;28;20100;-81
2022/05/26 02:40:14;;;;;;;7.85;4.72;;;20.30;63.60;;;;;;5053121;28;20041;-82
2022/05/26 02:43:19;;;;;;;6.43;4.40;;;20.30;63.80;;;;;;5053842;28;20025;-80
2022/05/26 02:46:17;;;;;;;6.20;4.18;;;20.50;63.60;;;;;;5053172;28;20399;-82
2022/05/26 02:49:17;;;;;;;6.55;4.20;;;20.50;63.60;;;;;;5053386;28;20029;-83
2022/05/26 02:52:04;;;;;;;5.53;4.25;;;20.50;63.20;;;;;;5052356;28;20025;-80
2022/05/26 02:54:41;;;;;;;6.78;4.40;;;20.80;63.00;;;;;;5053330;28;20546;-80
2022/05/26 02:57:24;;;;;;;6.30;4.35;;;20.80;62.20;;;;;;5051648;28;20017;-82
2022/05/26 03:00:15;;;;;;;5.13;3.67;;;20.80;62.30;;;;;;5052316;28;20033;-77
2022/05/26 03:03:01;;;;;;;6.05;4.07;;;20.90;61.80;;;;;;5052654;28;20033;-81
2022/05/26 03:05:36;;;;;;;6.07;4.13;;;21.10;61.60;;;;;;5052719;28;20028;-79
2022/05/26 03:08:06;;;;;;;6.28;3.80;;;21.20;61.00;;;;;;5040855;28;20103;-84
2022/05/26 03:10:33;;;;;;;6.28;3.95;;;21.30;60.60;;;;;;5034030;28;20449;-83
2022/05/26 03:13:00;;;;;;;7.00;4.07;;;21.40;60.50;;;;;;5033590;28;20037;-86
2022/05/26 03:15:28;;;;;;;5.45;4.00;;;21.40;60.30;;;;;;5033015;28;20026;-80
2022/05/26 03:17:54;;;;;;;5.15;3.60;;;21.40;60.40;;;;;;5043665;28;20021;-86
2022/05/26 03:20:19;;;;;;;6.72;4.10;;;21.40;60.50;;;;;;5051213;28;20033;-78
2022/05/26 03:22:45;;;;;;;5.85;4.32;;;21.10;60.80;;;;;;5053350;28;20522;-78
2022/05/26 03:25:11;;;;;;;6.88;4.13;;;21.00;61.70;;;;;;5052412;28;20033;-79
2022/05/26 03:27:37;;;;;;;5.57;4.00;;;21.10;61.60;;;;;;5052763;28;20025;-80
2022/05/26 03:30:03;;;;;;;6.53;4.40;;;21.00;62.10;;;;;;5053593;28;20076;-85
2022/05/26 03:32:29;;;;;;;6.72;4.10;;;21.00;61.60;;;;;;5048027;28;20477;-81
2022/05/26 03:43:09;;;;;;;7.35;3.83;;;21.10;61.30;;;;;;5052727;28;20087;-87
2022/05/26 03:45:36;;;;;;;6.28;3.50;;;21.10;60.80;;;;;;5052550;28;20025;-80
2022/05/26 03:48:03;;;;;;;5.18;3.90;;;21.10;61.50;;;;;;5052034;28;20067;-86
2022/05/26 03:50:29;;;;;;;5.60;3.72;;;21.00;61.50;;;;;;5051334;28;20090;-80
2022/05/26 03:52:55;;;;;;;8.55;4.10;;;21.20;61.40;;;;;;5052784;28;20434;-79
2022/05/26 03:55:22;;;;;;;5.00;3.47;;;21.50;61.00;;;;;;5051717;28;20024;-80
2022/05/26 03:57:48;;;;;;;5.55;3.95;;;21.40;60.80;;;;;;5051865;28;20025;-83
2022/05/26 04:00:16;;;;;;;7.22;3.80;;;21.50;60.70;;;;;;5038291;28;20060;-82
2022/05/26 04:02:42;;;;;;;7.88;3.83;;;21.60;60.20;;;;;;5033349;28;20404;-79
2022/05/26 04:05:09;;;;;;;5.20;3.88;;;21.70;60.10;;;;;;5033226;28;20030;-81
2022/05/26 04:07:35;;;;;;;7.85;4.28;;;21.90;60.00;;;;;;5038842;28;20021;-79
2022/05/26 04:10:06;;;;;;;6.03;4.10;;;21.70;60.10;;;;;;5053165;28;20091;-85
2022/05/26 04:12:32;;;;;;;6.22;4.00;;;21.70;59.90;;;;;;5053111;28;20444;-81
2022/05/26 04:14:58;;;;;;;6.38;3.75;;;21.70;60.30;;;;;;5051997;28;20468;-79
2022/05/26 04:17:25;;;;;;;6.43;3.92;;;21.70;60.00;;;;;;5049743;28;20029;-84
2022/05/26 04:19:51;;;;;;;5.13;3.80;;;21.70;60.30;;;;;;5050884;28;20170;-79
2022/05/26 04:22:21;;;;;;;4.90;3.78;;;21.70;60.20;;;;;;5049914;28;20052;-78
2022/05/26 04:24:49;;;;;;;5.13;3.80;;;21.80;60.00;;;;;;5051863;28;20024;-81
2022/05/26 04:27:18;;;;;;;6.38;4.05;;;21.90;59.90;;;;;;5052999;28;20525;-88
2022/05/26 04:29:44;;;;;;;4.63;3.67;;;21.90;59.70;;;;;;5054018;28;20048;-89
2022/05/26 04:32:10;;;;;;;4.72;3.40;;;21.80;59.80;;;;;;5052056;28;20490;-80
2022/05/26 04:34:37;;;;;;;5.03;3.50;;;21.70;60.20;;;;;;5052291;28;20026;-82
2022/05/26 04:37:03;;;;;;;8.65;4.07;;;21.80;60.00;;;;;;5052454;28;20032;-82
2022/05/26 04:39:28;;;;;;;5.43;3.30;;;21.80;60.20;;;;;;5035510;28;20392;-79
2022/05/26 04:41:58;;;;;;;5.93;3.60;;;21.70;60.30;;;;;;5050942;28;20483;-86
2022/05/26 04:44:24;;;;;;;8.57;4.00;;;21.50;60.40;;;;;;5055495;28;20056;-83
2022/05/26 04:46:50;;;;;;;5.38;3.78;;;21.50;60.90;;;;;;5052987;28;20071;-77
2022/05/26 04:49:15;;;;;;;5.80;3.97;;;21.70;60.40;;;;;;5047003;28;20037;-83
2022/05/26 04:51:41;;;;;;;7.00;3.55;;;22.00;60.00;;;;;;5050365;28;20029;-85
2022/05/26 04:54:08;;;;;;;5.15;3.67;;;22.10;60.00;;;;;;5045780;28;20450;-88
2022/05/26 04:56:34;;;;;;;5.28;3.45;;;22.00;59.90;;;;;;5055747;28;20027;-88
2022/05/26 04:58:59;;;;;;;5.30;3.58;;;22.10;60.00;;;;;;5054954;28;20407;-78
2022/05/26 05:01:25;;;;;;;5.68;3.47;;;22.00;60.10;;;;;;5054990;28;20033;-79
2022/05/26 05:03:51;;;;;;;5.70;3.50;;;22.10;59.80;;;;;;5055712;28;20376;-82
2022/05/26 05:06:17;;;;;;;4.60;3.17;;;22.10;59.80;;;;;;5055209;28;20032;-86
2022/05/26 05:08:44;;;;;;;4.68;3.22;;;22.20;60.00;;;;;;5056226;28;20020;-81
2022/05/26 05:11:11;;;;;;;6.25;3.40;;;22.10;60.20;;;;;;5054759;28;20189;-77
2022/05/26 05:13:37;;;;;;;4.28;3.10;;;22.00;60.50;;;;;;5057636;28;20025;-83
2022/05/26 05:16:19;;;;;;;4.95;3.38;;;21.80;60.90;;;;;;5054413;28;20032;-81
2022/05/26 05:18:45;;;;;;;4.88;3.45;;;21.80;60.80;;;;;;5054345;28;20082;-81
2022/05/26 05:21:17;;;;;;;4.00;2.97;;;22.20;60.10;;;;;;4713751;28;10000576;-80
2022/05/26 05:23:48;;;;;;;3.80;2.90;;;22.50;59.20;;;;;;5052182;28;20269;-82
2022/05/26 05:26:19;;;;;;;5.47;3.15;;;22.70;58.60;;;;;;5052154;28;20124;-78
2022/05/26 05:28:47;;;;;;;;;;;22.70;58.20;;;;;;5053437;28;20033;-82
2022/05/26 05:31:37;;;;;;;7.55;3.03;;;22.80;58.50;;;;;;5052751;28;19995;-83
2022/05/26 05:34:12;;;;;;;4.85;3.00;;;23.20;58.50;;;;;;5051851;28;20025;-79
2022/05/26 05:36:39;;;;;;;4.13;2.60;;;23.10;57.50;;;;;;5050859;28;20021;-77
2022/05/26 05:39:05;;;;;;;4.53;2.40;;;23.40;57.70;;;;;;5052161;28;20098;-81
2022/05/26 05:41:33;;;;;;;3.50;2.67;;;23.40;57.40;;;;;;5051066;28;20065;-84
2022/05/26 05:44:00;;;;;;;6.65;2.60;;;23.50;57.80;;;;;;5051899;28;20033;-78
2022/05/26 05:46:33;;;;;;;3.60;2.42;;;23.60;57.00;;;;;;5053488;28;20040;-80
2022/05/26 05:49:00;;;;;;;5.32;2.53;;;23.80;56.00;;;;;;5048600;28;20013;-79
2022/05/26 05:51:25;;;;;;;4.03;2.20;;;23.90;56.40;;;;;;5052668;28;20414;-80
2022/05/26 05:53:51;;;;;;;4.25;2.42;;;24.20;55.80;;;;;;5052603;28;20079;-76
2022/05/26 05:56:17;;;;;;;4.10;2.47;;;24.30;55.60;;;;;;5050783;28;20525;-79
2022/05/26 05:58:42;;;;;;;5.05;2.55;;;24.30;55.60;;;;;;5047357;28;20044;-82
2022/05/26 06:01:08;;;;;;;3.67;2.50;;;24.20;55.80;;;;;;5046260;28;20399;-79
2022/05/26 06:03:35;;;;;;;3.47;2.63;;;24.10;56.70;;;;;;5042335;28;20392;-87
2022/05/26 06:06:02;;;;;;;4.03;2.28;;;24.20;56.70;;;;;;5037437;28;20483;-84
2022/05/26 06:08:28;;;;;;;5.03;2.42;;;24.10;55.50;;;;;;5050345;28;20105;-80
2022/05/26 06:10:54;;;;;;;7.07;2.35;;;23.80;56.30;;;;;;5050879;28;20033;-87
2022/05/26 06:13:20;;;;;;;4.18;2.42;;;24.00;55.90;;;;;;5053135;28;20067;-86
2022/05/26 06:15:46;;;;;;;3.70;2.45;;;23.80;56.20;;;;;;5051339;28;20388;-77
2022/05/26 06:18:13;;;;;;;4.40;2.30;;;23.60;56.70;;;;;;5052349;28;20021;-79
2022/05/26 06:20:40;;;;;;;4.20;2.38;;;23.10;56.60;;;;;;5050154;28;20037;-79
2022/05/26 06:23:06;;;;;;;4.53;2.45;;;22.60;57.90;;;;;;5051712;28;20017;-83
2022/05/26 06:25:32;;;;;;;3.65;2.25;;;22.70;58.60;;;;;;5051955;28;20021;-81
2022/05/26 06:30:42;;;;;;;4.53;2.40;;;22.80;58.70;;;;;;5052173;28;20040;-79
2022/05/26 06:38:42;;;;;;;4.28;2.30;;;23.40;58.30;;;;;;5059361;28;20068;-91
2022/05/26 06:43:54;;;;;;;3.92;2.40;;;23.90;58.00;;;;;;5074560;28;20028;-79
2022/05/26 06:46:20;;;;;;;4.45;2.10;;;24.40;57.40;;;;;;5074362;28;20032;-82
2022/05/26 06:48:46;;;;;;;4.47;2.33;;;24.70;55.80;;;;;;5074489;28;20029;-76
2022/05/26 06:51:12;;;;;;;3.45;2.30;;;24.90;56.50;;;;;;5073702;28;20154;-78
2022/05/26 06:53:38;;;;;;;3.45;2.22;;;25.00;55.40;;;;;;5074291;28;20032;-78
2022/05/26 06:56:05;;;;;;;3.20;2.20;;;25.00;56.00;;;;;;5073903;28;20024;-77
2022/05/26 06:58:31;;;;;;;5.45;2.30;;;25.20;56.00;;;;;;5073560;28;20039;-81
2022/05/26 07:00:57;;;;;;;4.22;2.60;;;25.50;56.20;;;;;;5073310;28;20033;-78
2022/05/26 07:03:23;;;;;;;4.70;2.30;;;25.60;55.60;;;;;;5055773;28;20056;-76
2022/05/26 07:05:52;;;;;;;5.30;2.28;;;25.40;56.00;;;;;;5055713;28;20116;-79
2022/05/26 07:08:18;;;;;;;4.03;2.30;;;25.10;55.20;;;;;;5073691;28;20024;-76
2022/05/26 07:10:46;;;;;;;3.65;2.20;;;24.80;55.60;;;;;;5055721;28;20483;-82
2022/05/26 07:13:12;;;;;;;3.25;2.28;;;24.70;56.00;;;;;;5073735;28;20060;-82
2022/05/26 07:15:38;;;;;;;4.53;2.20;;;24.90;56.60;;;;;;5073508;28;20052;-85
2022/05/26 07:18:05;;;;;;;3.72;2.00;;;24.70;55.90;;;;;;5073890;28;20044;-80
2022/05/26 07:20:33;;;;;;;4.53;2.25;;;24.60;55.90;;;;;;5073560;28;20033;-81
2022/05/26 07:22:59;;;;;;;4.13;2.58;;;24.40;56.70;;;;;;5073808;28;20028;-76
2022/05/26 07:25:25;;;;;;;5.72;2.47;;;24.20;57.20;;;;;;5055473;28;20032;-80
2022/05/26 07:27:51;;;;;;;3.92;2.92;;;24.20;57.70;;;;;;5073504;28;20429;-77
2022/05/26 07:30:17;;;;;;;11.38;2.90;;;23.90;57.90;;;;;;5055801;28;20021;-80
2022/05/26 07:32:42;;;;;;;5.60;3.08;;;23.70;59.00;;;;;;5073343;28;20103;-83
2022/05/26 07:35:08;;;;;;;5.65;3.22;;;23.70;59.70;;;;;;5073999;28;20108;-76
2022/05/26 07:43:05;;;;;;;4.32;2.90;;;25.00;58.70;;;;;;5073728;28;20550;-80
2022/05/26 07:45:32;;;;;;;5.57;3.35;;;25.50;57.00;;;;;;5054981;28;20390;-78
2022/05/26 07:47:58;;;;;;;6.03;3.00;;;25.50;56.60;;;;;;5073469;28;20085;-78
2022/05/26 07:50:23;;;;;;;6.07;3.03;;;25.50;56.80;;;;;;5055385;28;20020;-84
2022/05/26 07:52:50;;;;;;;5.78;3.20;;;25.40;57.10;;;;;;5055107;28;20108;-79
2022/05/26 07:55:18;;;;;;;5.65;2.72;;;25.60;56.80;;;;;;5072981;28;20025;-80
2022/05/26 07:57:44;;;;;;;5.28;3.25;;;25.60;56.30;;;;;;5055389;28;20024;-77
2022/05/26 08:00:11;;;;;;;4.40;2.70;;;25.70;56.90;;;;;;5055279;28;20036;-82
2022/05/26 08:02:40;;;;;;;5.50;3.40;;;25.90;56.50;;;;;;5073097;28;20104;-79
2022/05/26 08:05:07;;;;;;;4.97;2.70;;;25.90;55.50;;;;;;5054949;28;20031;-79
2022/05/26 08:07:33;;;;;;;3.80;2.58;;;25.90;57.00;;;;;;5072865;28;20099;-78
2022/05/26 08:09:59;;;;;;;4.30;2.58;;;26.30;56.90;;;;;;5072661;28;20440;-84
2022/05/26 08:12:25;;;;;;;5.75;2.80;;;26.80;56.70;;;;;;5073661;28;20017;-79
2022/05/26 08:14:53;;;;;;;5.40;2.70;;;26.80;56.00;;;;;;5073557;28;20522;-83
2022/05/26 08:17:22;;;;;;;5.13;3.00;;;26.80;55.30;;;;;;5073233;28;20487;-83
2022/05/26 08:19:49;;;;;;;6.07;3.35;;;26.60;55.60;;;;;;5073259;28;20024;-81
2022/05/26 08:22:15;;;;;;;4.03;3.28;;;26.40;55.70;;;;;;5073485;28;20029;-78
2022/05/26 08:24:41;;;;;;;6.40;3.40;;;26.60;56.80;;;;;;5073437;28;20551;-78
2022/05/26 08:27:06;;;;;;;4.50;3.20;;;26.60;56.60;;;;;;5073711;28;20040;-88
2022/05/26 08:29:33;;;;;;;4.75;2.65;;;26.50;56.40;;;;;;5055561;28;20021;-86
2022/05/26 08:31:58;;;;;;;5.15;3.33;;;26.70;57.00;;;;;;5072774;28;20036;-90
2022/05/26 08:34:24;;;;;;;5.00;3.17;;;27.00;55.90;;;;;;4371887;28;10000646;-77
2022/05/26 08:36:50;;;;;;;4.70;2.95;;;27.10;56.00;;;;;;5073642;28;20031;-80
2022/05/26 08:39:16;;;;;;;4.68;3.20;;;27.20;56.20;;;;;;5054235;28;20074;-80
2022/05/26 08:41:46;;;;;;;7.03;3.78;;;27.50;55.70;;;;;;5072744;28;20458;-77
2022/05/26 08:44:37;;;;;;;5.88;3.10;;;27.40;55.10;;;;;;5072500;28;20079;-80
2022/05/26 08:47:19;;;;;;;4.45;3.20;;;27.50;55.50;;;;;;5074075;28;20051;-82
2022/05/26 08:49:53;;;;;;;6.93;3.60;;;27.20;56.50;;;;;;5072912;28;20024;-82
2022/05/26 08:52:34;;;;;;;3.85;2.90;;;27.50;55.70;;;;;;5054674;28;20091;-78
2022/05/26 08:55:06;;;;;;;5.65;3.10;;;27.50;56.20;;;;;;5072642;28;20025;-80
2022/05/26 08:58:09;;;;;;;4.93;3.30;;;27.60;56.50;;;;;;5054712;28;20116;-84
2022/05/26 09:00:38;;;;;;;6.13;2.97;;;27.70;57.10;;;;;;4971639;28;20062;-88
2022/05/26 09:03:23;;;;;;;5.22;3.03;;;27.90;56.10;;;;;;4971378;28;20027;-80
2022/05/26 09:05:57;;;;;;;4.15;2.70;;;28.10;55.20;;;;;;4956072;28;20038;-86
2022/05/26 09:14:29;;;;;;;4.85;2.83;;;27.50;56.30;;;;;;4972398;28;20122;-82
2022/05/26 09:16:58;;;;;;;4.72;2.78;;;27.80;56.60;;;;;;4958785;28;20043;-84
2022/05/26 09:19:25;;;;;;;3.95;2.90;;;28.00;56.10;;;;;;4975614;28;20425;-84
2022/05/26 09:21:52;;;;;;;4.97;2.80;;;28.00;55.20;;;;;;4959024;28;20034;-85
2022/05/26 09:24:26;;;;;;;4.78;2.45;;;28.10;55.20;;;;;;4958893;28;20389;-82
2022/05/26 09:27:01;;;;;;;5.40;2.75;;;28.10;55.10;;;;;;4975332;28;20067;-81
2022/05/26 09:29:29;;;;;;;4.22;2.90;;;28.20;55.80;;;;;;4972447;28;20421;-82
2022/05/26 09:31:58;;;;;;;3.80;2.78;;;27.90;54.40;;;;;;4958986;28;20118;-76
2022/05/26 09:34:32;;;;;;;4.30;3.10;;;28.00;54.80;;;;;;4974775;28;20054;-78
2022/05/26 09:37:03;;;;;;;5.53;2.65;;;28.10;54.70;;;;;;5043873;28;20121;-78
2022/05/26 09:39:37;;;;;;;6.95;3.25;;;28.30;55.10;;;;;;5058167;28;20049;-79
2022/05/26 09:42:28;;;;;;;4.97;3.25;;;28.20;54.40;;;;;;5076305;28;20040;-79
2022/05/26 09:45:01;;;;;;;5.40;2.67;;;28.40;54.70;;;;;;5046604;28;20032;-82
2022/05/26 09:47:39;;;;;;;4.80;2.92;;;28.40;55.30;;;;;;5056009;28;20037;-77
2022/05/26 09:50:14;;;;;;;4.82;3.20;;;28.30;54.80;;;;;;5074740;28;20099;-78
2022/05/26 09:52:49;;;;;;;5.07;2.90;;;28.40;54.20;;;;;;5055838;28;20088;-80
2022/05/26 09:55:27;;;;;;;6.57;3.33;;;28.90;53.70;;;;;;5044312;28;20037;-76
2022/05/26 09:58:09;;;;;;;5.20;3.15;;;28.80;53.20;;;;;;5075282;28;20074;-80
2022/05/26 10:00:35;;;;;;;6.53;3.47;;;28.90;52.80;;;;;;5057389;28;20395;-78
2022/05/26 10:03:24;;;;;;;6.18;3.25;;;28.80;53.60;;;;;;5058023;28;20029;-80
2022/05/26 10:06:02;;;;;;;5.72;2.70;;;28.80;53.80;;;;;;5073690;28;20033;-89
2022/05/26 10:08:46;;;;;;;5.20;2.80;;;28.90;53.70;;;;;;5057442;28;20395;-78
2022/05/26 10:11:30;;;;;;;6.15;3.15;;;29.00;53.40;;;;;;5075732;28;20023;-81
2022/05/26 10:14:04;;;;;;;5.65;2.83;;;29.20;52.20;;;;;;5074962;28;20035;-81
2022/05/26 10:16:52;;;;;;;6.05;3.10;;;29.00;52.20;;;;;;5075402;28;20103;-75
2022/05/26 10:19:28;;;;;;;8.80;3.05;;;28.60;52.30;;;;;;5057029;28;20024;-82
2022/05/26 10:22:02;;;;;;;5.10;2.70;;;28.40;53.40;;;;;;5057526;28;20043;-78
2022/05/26 10:24:43;;;;;;;3.72;2.47;;;28.70;53.60;;;;;;5074455;28;20048;-86
2022/05/26 10:27:27;;;;;;;5.88;2.88;;;29.10;53.20;;;;;;5074750;28;20027;-78
2022/05/26 10:30:13;;;;;;;4.47;2.10;;;29.10;52.10;;;;;;5074871;28;20024;-80
2022/05/26 10:32:58;;;;;;;3.88;2.20;;;29.10;52.50;;;;;;5075077;28;20028;-86
2022/05/26 10:35:35;;;;;;;5.72;2.00;;;29.40;51.80;;;;;;5074648;28;20027;-82
2022/05/26 10:38:16;;;;;;;3.35;1.92;;;29.60;51.60;;;;;;5074420;28;20032;-80
2022/05/26 10:41:00;;;;;;;5.43;1.98;;;29.60;51.30;;;;;;5057358;28;20063;-80
2022/05/26 10:43:29;;;;;;;4.50;1.80;;;29.50;50.70;;;;;;5057416;28;20036;-80
2022/05/26 10:45:57;;;;;;;3.72;1.92;;;29.90;50.80;;;;;;5056819;28;20025;-78
2022/05/26 10:48:28;;;;;;;4.85;1.90;;;29.90;51.20;;;;;;5056379;28;20031;-85
2022/05/26 10:51:05;;;;;;;4.70;2.20;;;30.00;50.00;;;;;;5074300;28;20020;-87
2022/05/26 10:53:50;;;;;;;3.17;1.80;;;29.90;49.40;;;;;;5056485;28;20020;-77
2022/05/26 10:56:23;;;;;;;4.90;2.30;;;29.80;50.30;;;;;;5056002;28;20538;-88
2022/05/26 10:59:12;;;;;;;4.00;1.90;;;29.60;49.50;;;;;;5056357;28;20021;-87
2022/05/26 11:01:44;;;;;;;3.20;1.90;;;29.30;50.10;;;;;;5074774;28;20079;-86
2022/05/26 11:04:28;;;;;;;6.07;2.20;;;28.70;50.00;;;;;;5073753;28;20035;-85
2022/05/26 11:06:59;;;;;;;4.22;1.90;;;28.90;50.80;;;;;;5073746;28;20032;-78
2022/05/26 11:09:34;;;;;;;4.30;1.73;;;28.90;51.80;;;;;;5073444;28;20021;-78
2022/05/26 11:12:04;;;;;;;3.40;1.92;;;29.10;51.50;;;;;;5074376;28;20021;-82
2022/05/26 11:17:56;;;;;;;3.28;1.80;;;29.30;50.60;;;;;;5074105;28;20279;-76
2022/05/26 11:20:29;;;;;;;4.25;1.75;;;29.30;51.50;;;;;;5055988;28;20120;-90
2022/05/26 11:23:03;;;;;;;3.88;1.88;;;28.70;50.70;;;;;;5073930;28;20032;-79
2022/05/26 11:25:31;;;;;;;3.05;1.50;;;28.10;51.30;;;;;;5073494;28;20017;-81
2022/05/26 11:28:20;;;;;;;4.30;1.80;;;28.20;51.90;;;;;;5055473;28;20471;-78
2022/05/26 11:36:51;;;;;;;4.35;1.67;;;28.50;50.30;;;;;;5074410;28;20035;-83
2022/05/26 11:39:22;;;;;;;2.97;1.60;;;28.60;50.80;;;;;;5072424;28;20052;-79
2022/05/26 11:42:16;;;;;;;3.67;1.70;;;29.00;52.10;;;;;;5073279;28;20093;-85
2022/05/26 11:44:44;;;;;;;4.30;1.70;;;29.30;50.10;;;;;;4974331;28;20050;-79
2022/05/26 11:47:31;;;;;;;2.35;1.45;;;29.60;49.10;;;;;;4972388;28;20512;-87
2022/05/26 11:49:56;;;;;;;2.90;1.60;;;29.60;48.90;;;;;;4972360;28;20066;-81
2022/05/26 11:52:40;;;;;;;2.92;1.60;;;29.40;48.90;;;;;;4972916;28;20142;-77
2022/05/26 11:55:24;;;;;;;3.17;1.50;;;29.10;48.40;;;;;;4972899;28;20034;-78
2022/05/26 11:57:54;;;;;;;3.30;1.52;;;29.00;49.00;;;;;;4956651;28;20121;-80
2022/05/26 12:00:38;;;;;;;5.30;1.70;;;28.80;48.60;;;;;;4972493;28;20109;-78
2022/05/26 12:03:24;;;;;;;5.63;1.58;;;28.50;48.00;;;;;;4972421;28;20035;-79
2022/05/26 12:06:04;;;;;;;4.15;1.70;;;28.20;48.30;;;;;;4972099;28;20073;-88
2022/05/26 12:09:04;;;;;;;5.57;1.67;;;28.20;47.90;;;;;;4972460;28;20031;-80
2022/05/26 12:11:53;;;;;;;3.05;1.50;;;28.10;48.30;;;;;;4934008;28;20518;-75
2022/05/26 12:14:24;;;;;;;3.15;1.30;;;28.10;48.90;;;;;;4933682;29;20428;-79
2022/05/26 12:16:50;;;;;;;4.82;1.30;;;28.50;49.80;;;;;;4933696;29;20546;-81
2022/05/26 12:19:40;;;;;;;3.80;1.70;;;28.70;48.20;;;;;;4933576;29;20483;-85
2022/05/26 12:22:29;;;;;;;4.47;1.48;;;29.00;47.70;;;;;;4974472;28;20042;-79
2022/05/26 12:25:21;;;;;;;3.95;1.55;;;29.30;48.40;;;;;;5010678;28;20026;-79
2022/05/26 12:27:53;;;;;;;3.38;1.77;;;29.20;49.40;;;;;;4998350;28;20431;-77
2022/05/26 12:30:43;;;;;;;3.28;1.50;;;28.70;49.20;;;;;;5010782;28;20068;-80
2022/05/26 12:33:21;;;;;;;3.75;1.40;;;28.80;48.90;;;;;;5010775;28;20025;-75
2022/05/26 12:36:26;;;;;;;3.47;1.58;;;28.60;50.40;;;;;;5010750;28;20034;-79
2022/05/26 12:39:13;;;;;;;3.33;1.70;;;28.70;50.10;;;;;;5010673;28;20092;-79
2022/05/26 12:41:58;;;;;;;2.75;1.50;;;28.80;49.30;;;;;;5010325;28;20101;-79
2022/05/26 12:44:57;;;;;;;3.33;1.50;;;29.00;49.20;;;;;;5010759;28;20026;-77
2022/05/26 12:47:38;;;;;;;3.65;1.50;;;28.50;49.20;;;;;;5000655;28;20077;-77
2022/05/26 12:50:16;;;;;;;2.83;1.67;;;28.30;49.60;;;;;;5056089;28;20024;-77
2022/05/26 12:52:44;;;;;;;3.28;1.65;;;28.30;49.40;;;;;;5076341;28;20413;-78
2022/05/26 12:55:51;;;;;;;2.85;1.52;;;28.10;48.90;;;;;;5057942;28;20374;-79
2022/05/26 12:58:21;;;;;;;6.75;1.70;;;28.20;49.10;;;;;;5057980;28;20025;-78
2022/05/26 13:00:58;;;;;;;4.28;1.40;;;28.40;49.40;;;;;;5058258;28;20048;-77
2022/05/26 13:03:43;;;;;;;4.65;1.40;;;28.70;49.40;;;;;;5075754;28;20169;-79
2022/05/26 13:06:11;;;;;;;4.93;1.50;;;29.30;49.80;;;;;;5071533;28;20466;-82
2022/05/26 13:08:40;;;;;;;2.58;1.40;;;29.80;48.60;;;;;;5076343;28;20051;-86
2022/05/26 13:11:14;;;;;;;2.72;1.30;;;29.20;47.40;;;;;;5075988;28;20021;-87
2022/05/26 13:14:02;;;;;;;3.28;1.40;;;29.10;48.80;;;;;;5058353;28;20021;-86
2022/05/26 13:16:30;;;;;;;2.70;1.50;;;29.30;48.30;;;;;;5059423;28;20071;-87
2022/05/26 13:19:15;;;;;;;3.97;1.40;;;29.20;47.80;;;;;;5058547;28;20467;-81
2022/05/26 13:21:49;;;;;;;3.67;1.35;;;29.10;48.20;;;;;;5057430;28;20036;-78
2022/05/26 13:24:15;;;;;;;4.05;1.45;;;29.20;48.90;;;;;;5073868;28;20032;-80
2022/05/26 13:26:42;;;;;;;3.45;1.40;;;29.80;49.40;;;;;;5058303;28;20364;-84
2022/05/26 13:29:09;;;;;;;3.17;1.35;;;29.30;46.70;;;;;;5076045;28;20028;-83
2022/05/26 13:34:33;;;;;;;4.63;1.55;;;29.00;47.90;;;;;;5096503;28;20053;-83
2022/05/26 13:37:15;;;;;;;4.25;1.60;;;29.10;47.90;;;;;;5095161;28;20028;-83
2022/05/26 13:39:41;;;;;;;4.68;1.40;;;29.30;48.10;;;;;;5076403;28;20076;-79
2022/05/26 13:42:07;;;;;;;4.40;1.40;;;29.50;48.20;;;;;;5076722;28;20121;-85
2022/05/26 13:44:43;;;;;;;3.22;1.65;;;29.60;47.50;;;;;;5077157;28;20158;-85
2022/05/26 13:47:12;;;;;;;4.43;1.50;;;29.10;48.20;;;;;;5056286;28;20403;-81
2022/05/26 13:49:43;;;;;;;2.95;1.40;;;28.90;48.40;;;;;;5055903;28;20016;-85
2022/05/26 13:52:19;;;;;;;2.75;1.75;;;29.00;47.90;;;;;;5055874;28;20517;-83
2022/05/26 13:55:04;;;;;;;2.72;1.42;;;29.30;48.50;;;;;;5056247;28;20382;-85
2022/05/26 13:57:39;;;;;;;2.97;1.40;;;29.60;47.80;;;;;;5056962;28;20021;-93
2022/05/26 14:00:36;;;;;;;3.85;1.40;;;29.50;47.50;;;;;;5057017;28;20554;-79